Time;durP1;ratioP1;P1;durP2;ratioP2;P2;SDS_P1;SDS_P2;PMS_P1;PMS_P2;Temp;Humidity;BMP_temperature;BMP_pressure;BME280_temperature;BME280_humidity;BME280_pressure;Samples;Min_cycle;Max_cycle;Signal;HPM_P1;HPM_P2
2023/08/05 00:01:49;;;;;;;4.70;4.40;;;;;;;25.61;88.34;100229.23;84085;283;136525;-60
2023/08/05 00:03:51;;;;;;;5.10;4.60;;;;;;;25.59;88.48;100228.40;84201;283;22561;-60
2023/08/05 00:05:53;;;;;;;4.80;4.30;;;;;;;25.57;88.41;100224.16;84108;284;137059;-61
2023/08/05 00:07:54;;;;;;;7.00;4.70;;;;;;;25.58;88.36;100224.70;84224;284;25131;-64
2023/08/05 00:09:56;;;;;;;4.50;4.10;;;;;;;25.56;88.33;100224.61;84253;283;137420;-61
2023/08/05 00:11:58;;;;;;;4.50;4.10;;;;;;;25.57;88.36;100225.46;84154;284;25196;-63
2023/08/05 00:14:00;;;;;;;4.80;4.50;;;;;;;25.54;88.41;100222.68;84077;282;136863;-64
2023/08/05 00:16:03;;;;;;;4.80;4.50;;;;;;;25.55;88.32;100228.17;84218;282;22546;-64
2023/08/05 00:18:05;;;;;;;4.20;3.90;;;;;;;25.52;88.25;100227.49;84328;279;24252;-61
2023/08/05 00:20:11;;;;;;;4.80;4.30;;;;;;;25.50;88.65;100228.56;84201;282;137325;-67
2023/08/05 00:22:13;;;;;;;4.50;4.20;;;;;;;25.50;88.72;100225.60;84322;283;25174;-60
2023/08/05 00:24:15;;;;;;;4.30;3.90;;;;;;;25.49;88.48;100220.11;84134;283;137373;-62
2023/08/05 00:26:17;;;;;;;7.10;4.60;;;;;;;25.45;88.52;100216.75;84202;283;25371;-72
2023/08/05 00:28:19;;;;;;;4.40;4.20;;;;;;;25.40;88.57;100206.94;84165;283;137154;-62
2023/08/05 00:30:21;;;;;;;4.80;4.40;;;;;;;25.47;88.53;100216.75;84188;284;25328;-63
2023/08/05 00:32:23;;;;;;;4.40;3.80;;;;;;;25.45;88.56;100215.79;84120;283;137002;-63
2023/08/05 00:34:25;;;;;;;5.00;4.60;;;;;;;25.43;88.66;100213.04;84271;283;22564;-63
2023/08/05 00:36:27;;;;;;;5.00;4.60;;;;;;;25.39;89.00;100213.02;84188;283;136897;-62
2023/08/05 00:38:28;;;;;;;4.70;4.20;;;;;;;25.35;89.21;100207.55;84308;283;24296;-57
2023/08/05 00:40:30;;;;;;;5.50;4.90;;;;;;;25.31;89.57;100207.65;84140;283;137022;-62
2023/08/05 00:42:32;;;;;;;4.50;4.30;;;;;;;25.28;89.81;100207.04;84288;283;25184;-60
2023/08/05 00:44:34;;;;;;;5.40;5.00;;;;;;;25.24;89.92;100210.67;84165;282;137376;-60
2023/08/05 00:46:36;;;;;;;5.00;4.60;;;;;;;25.23;90.16;100212.19;84254;283;23717;-61
2023/08/05 00:48:38;;;;;;;4.80;4.50;;;;;;;25.22;90.05;100210.45;84091;281;137119;-61
2023/08/05 00:50:40;;;;;;;5.10;4.80;;;;;;;25.18;90.57;100207.64;84194;284;24135;-63
2023/08/05 00:52:43;;;;;;;4.80;4.40;;;;;;;25.17;90.41;100211.21;84205;283;136774;-63
2023/08/05 00:54:46;;;;;;;5.70;5.20;;;;;;;25.17;90.47;100209.64;84358;284;22597;-60
2023/08/05 00:56:48;;;;;;;5.20;4.80;;;;;;;25.14;90.41;100207.04;84085;284;136866;-65
2023/08/05 00:58:51;;;;;;;4.90;4.50;;;;;;;25.15;90.32;100205.84;84312;283;26234;-63
2023/08/05 01:00:53;;;;;;;6.10;5.20;;;;;;;25.09;90.68;100206.71;84182;283;138458;-66
2023/08/05 01:02:54;;;;;;;4.80;4.50;;;;;;;25.09;90.52;100209.13;84212;283;22641;-62
2023/08/05 01:04:56;;;;;;;8.80;5.00;;;;;;;25.08;90.47;100207.16;84163;283;138415;-63
2023/08/05 01:06:59;;;;;;;5.50;5.10;;;;;;;25.05;90.40;100208.01;84282;283;22576;-66
2023/08/05 01:09:03;;;;;;;6.50;4.50;;;;;;;25.03;90.67;100214.29;84116;284;137059;-64
2023/08/05 01:11:05;;;;;;;4.70;4.50;;;;;;;25.07;90.30;100211.70;84231;284;24457;-62
2023/08/05 01:13:07;;;;;;;4.80;4.50;;;;;;;25.07;90.45;100212.45;84256;282;139142;-62
2023/08/05 01:15:10;;;;;;;5.10;4.70;;;;;;;25.06;90.59;100210.02;84260;274;22589;-63
2023/08/05 01:17:11;;;;;;;6.50;4.10;;;;;;;25.03;90.56;100211.85;84134;283;139720;-61
2023/08/05 01:19:20;;;;;;;10.00;4.80;;;;;;;25.01;90.63;100208.80;84189;282;25289;-60
2023/08/05 01:21:38;;;;;;;7.20;4.20;;;;;;;24.99;90.87;100210.13;84093;283;137475;-64
2023/08/05 01:24:19;;;;;;;5.20;4.70;;;;;;;24.96;91.20;100209.40;84182;283;22573;-63
2023/08/05 01:26:21;;;;;;;5.20;4.90;;;;;;;24.91;91.61;100211.09;84375;283;25134;-64
2023/08/05 01:28:23;;;;;;;6.40;5.30;;;;;;;24.86;91.81;100214.52;84078;283;138552;-64
2023/08/05 01:30:26;;;;;;;5.60;5.20;;;;;;;24.82;92.21;100217.55;84211;285;22548;-62
2023/08/05 01:32:30;;;;;;;5.90;4.70;;;;;;;24.80;92.49;100212.34;84220;283;137171;-62
2023/08/05 01:34:32;;;;;;;5.70;5.20;;;;;;;24.78;92.67;100214.04;84368;283;25235;-65
2023/08/05 01:36:34;;;;;;;5.30;4.90;;;;;;;24.74;92.84;100213.81;84220;283;136990;-61
2023/08/05 01:38:36;;;;;;;6.00;5.40;;;;;;;24.74;92.94;100214.30;84336;283;22546;-62
2023/08/05 01:40:38;;;;;;;5.10;4.80;;;;;;;24.73;92.90;100216.70;84176;283;137246;-62
2023/08/05 01:42:40;;;;;;;5.70;5.30;;;;;;;24.74;92.93;100216.42;84203;283;25177;-64
2023/08/05 01:44:42;;;;;;;7.50;5.50;;;;;;;24.70;92.95;100216.95;84053;283;137026;-63
2023/08/05 01:46:44;;;;;;;5.80;5.40;;;;;;;24.67;93.02;100218.59;84199;282;22561;-62
2023/08/05 01:48:46;;;;;;;6.00;5.50;;;;;;;24.65;93.28;100219.06;84280;281;137024;-62
2023/08/05 01:50:48;;;;;;;5.50;5.10;;;;;;;24.65;93.18;100218.95;84261;282;22747;-66
2023/08/05 01:52:51;;;;;;;7.10;5.60;;;;;;;24.65;93.33;100220.30;84216;282;136951;-61
2023/08/05 01:54:53;;;;;;;5.80;5.30;;;;;;;24.63;93.63;100223.06;84358;283;22548;-61
2023/08/05 01:56:55;;;;;;;5.80;5.40;;;;;;;24.61;93.79;100219.85;84186;283;137063;-60
2023/08/05 01:58:56;;;;;;;6.60;6.20;;;;;;;24.57;94.26;100231.77;84165;283;22546;-61
2023/08/05 02:00:58;;;;;;;5.90;5.40;;;;;;;24.55;94.54;100234.17;84078;280;137392;-68
2023/08/05 02:03:00;;;;;;;6.00;5.60;;;;;;;24.54;94.59;100237.73;84174;283;25195;-62
2023/08/05 02:05:02;;;;;;;6.00;5.60;;;;;;;24.52;94.70;100237.19;84186;283;136976;-63
2023/08/05 02:07:05;;;;;;;6.00;5.70;;;;;;;24.51;94.52;100236.80;84288;284;25221;-64
2023/08/05 02:09:07;;;;;;;5.10;4.90;;;;;;;24.47;94.69;100230.34;84218;283;136973;-64
2023/08/05 02:11:09;;;;;;;5.80;5.40;;;;;;;24.48;94.89;100231.09;84388;283;24403;-63
2023/08/05 02:13:11;;;;;;;6.70;5.60;;;;;;;24.47;94.56;100234.54;83959;284;136605;-63
2023/08/05 02:15:13;;;;;;;5.80;5.40;;;;;;;24.48;94.71;100237.15;84152;284;22568;-62
2023/08/05 02:17:15;;;;;;;6.10;5.70;;;;;;;24.51;94.21;100240.56;84101;283;137004;-62
2023/08/05 02:19:17;;;;;;;5.90;5.40;;;;;;;24.51;94.13;100242.74;84279;283;22691;-63
2023/08/05 02:21:19;;;;;;;6.30;5.80;;;;;;;24.51;94.22;100243.99;84213;283;138458;-63
2023/08/05 02:23:21;;;;;;;5.60;5.10;;;;;;;24.52;93.80;100246.52;84200;283;22553;-62
2023/08/05 02:25:23;;;;;;;4.90;4.50;;;;;;;24.49;93.90;100248.73;84108;283;138036;-57
2023/08/05 02:27:25;;;;;;;5.80;5.40;;;;;;;24.51;93.74;100252.05;84251;283;22558;-62
2023/08/05 02:29:27;;;;;;;6.10;5.60;;;;;;;24.56;93.13;100256.95;84163;284;137729;-61
2023/08/05 02:31:29;;;;;;;6.20;5.80;;;;;;;24.57;93.45;100255.73;84240;284;22548;-64
2023/08/05 02:33:31;;;;;;;5.80;5.30;;;;;;;24.56;93.45;100260.27;84224;283;137550;-63
2023/08/05 02:35:33;;;;;;;5.90;5.50;;;;;;;24.54;93.88;100260.23;84073;284;22606;-64
2023/08/05 02:37:35;;;;;;;6.60;5.90;;;;;;;24.53;94.01;100266.61;84083;283;138963;-62
2023/08/05 02:39:40;;;;;;;5.40;5.00;;;;;;;24.52;94.06;100267.77;84188;283;25220;-62
2023/08/05 02:41:42;;;;;;;6.00;5.50;;;;;;;24.52;94.26;100270.81;84130;283;137107;-64
2023/08/05 02:43:44;;;;;;;7.20;5.90;;;;;;;24.51;94.58;100267.80;84060;272;25329;-63
2023/08/05 02:45:53;;;;;;;7.50;6.20;;;;;;;24.49;94.71;100266.27;84094;283;137064;-66
2023/08/05 02:47:55;;;;;;;6.60;6.00;;;;;;;24.47;95.01;100266.24;84240;282;23721;-64
2023/08/05 02:49:57;;;;;;;6.30;5.70;;;;;;;24.44;95.32;100270.02;84074;283;136945;-63
2023/08/05 02:51:59;;;;;;;5.80;5.30;;;;;;;24.41;95.52;100272.81;84231;284;22564;-66
2023/08/05 02:54:01;;;;;;;8.00;5.70;;;;;;;24.41;95.74;100273.91;84187;283;136812;-63
2023/08/05 02:56:03;;;;;;;6.30;5.80;;;;;;;24.39;95.95;100276.54;84073;273;137349;-62
2023/08/05 02:58:05;;;;;;;6.70;6.20;;;;;;;24.41;95.97;100273.31;84271;283;22547;-63
2023/08/05 03:00:07;;;;;;;8.50;5.70;;;;;;;24.43;96.17;100274.38;84023;278;137352;-62
2023/08/05 03:02:10;;;;;;;8.50;5.90;;;;;;;24.47;95.96;100273.33;84169;283;22542;-60
2023/08/05 03:04:11;;;;;;;6.50;5.90;;;;;;;24.57;95.57;100277.27;84195;283;138603;-60
2023/08/05 03:06:15;;;;;;;6.50;5.90;;;;;;;24.72;94.68;100277.31;84352;284;24311;-60
2023/08/05 03:08:17;;;;;;;6.50;5.40;;;;;;;24.92;93.11;100274.48;84079;284;137621;-63
2023/08/05 03:10:20;;;;;;;5.80;5.40;;;;;;;25.05;91.29;100272.24;84154;283;22559;-62
2023/08/05 03:12:22;;;;;;;6.40;6.00;;;;;;;25.14;90.42;100273.64;84018;284;136777;-57
2023/08/05 03:14:25;;;;;;;10.80;5.40;;;;;;;25.20;89.82;100275.11;84214;282;22653;-64
2023/08/05 03:16:27;;;;;;;5.70;5.20;;;;;;;25.32;88.66;100281.36;84095;284;136665;-65
2023/08/05 03:18:34;;;;;;;6.60;6.10;;;;;;;25.49;87.85;100278.89;84269;282;26445;-63
2023/08/05 03:20:37;;;;;;;6.40;6.00;;;;;;;25.63;86.78;100274.84;84222;281;136318;-64
2023/08/05 03:22:43;;;;;;;7.60;6.50;;;;;;;25.77;85.63;100268.02;84331;282;25197;-60
2023/08/05 03:24:45;;;;;;;6.30;5.30;;;;;;;25.93;84.72;100273.25;84144;282;136319;-64
2023/08/05 03:26:47;;;;;;;6.00;5.20;;;;;;;26.06;83.28;100274.73;84114;283;22551;-62
2023/08/05 03:28:50;;;;;;;6.90;5.60;;;;;;;26.17;82.38;100276.45;84356;283;136948;-66
2023/08/05 03:30:52;;;;;;;6.30;5.70;;;;;;;26.29;82.00;100272.02;84287;284;22744;-63
2023/08/05 03:32:57;;;;;;;6.10;5.50;;;;;;;26.43;81.09;100268.31;84006;284;136920;-64
2023/08/05 03:35:01;;;;;;;5.20;4.90;;;;;;;26.59;80.62;100266.81;84211;283;22750;-66
2023/08/05 03:37:05;;;;;;;7.70;6.80;;;;;;;26.85;79.09;100259.77;84141;283;136273;-63
2023/08/05 03:39:07;;;;;;;7.20;6.00;;;;;;;27.13;77.98;100257.13;84195;282;22565;-66
2023/08/05 03:41:09;;;;;;;5.10;4.80;;;;;;;27.44;76.00;100256.86;84054;283;136343;-62
2023/08/05 03:43:11;;;;;;;13.20;5.50;;;;;;;27.70;74.66;100256.08;84041;284;22561;-65
2023/08/05 03:45:13;;;;;;;6.10;5.60;;;;;;;27.89;74.34;100255.86;84076;284;137055;-61
2023/08/05 03:47:15;;;;;;;7.30;6.10;;;;;;;28.09;73.40;100255.73;84278;284;22544;-63
2023/08/05 03:49:17;;;;;;;8.90;6.70;;;;;;;28.30;72.61;100252.71;84261;283;136412;-63
2023/08/05 03:51:19;;;;;;;5.80;5.30;;;;;;;28.55;70.41;100251.00;84377;283;22625;-60
2023/08/05 03:53:22;;;;;;;7.70;6.40;;;;;;;28.78;70.03;100251.63;84058;284;137990;-65
2023/08/05 03:55:26;;;;;;;6.20;5.60;;;;;;;28.99;68.86;100254.67;84205;283;22547;-63
2023/08/05 03:57:30;;;;;;;7.80;5.90;;;;;;;29.15;68.31;100249.46;83978;284;138025;-63
2023/08/05 03:59:32;;;;;;;5.60;5.10;;;;;;;29.30;67.66;100250.44;84205;283;22563;-64
2023/08/05 04:01:34;;;;;;;7.40;5.00;;;;;;;29.46;66.62;100251.31;83998;283;136443;-65
2023/08/05 04:03:36;;;;;;;5.40;5.00;;;;;;;29.58;65.80;100255.81;84089;283;25303;-70
2023/08/05 04:05:40;;;;;;;6.90;5.20;;;;;;;29.71;64.57;100250.40;84065;283;136428;-74
2023/08/05 04:07:42;;;;;;;4.80;4.50;;;;;;;29.87;64.30;100252.91;84260;283;24519;-63
2023/08/05 04:09:49;;;;;;;7.90;5.40;;;;;;;30.22;63.28;100255.86;84007;282;136381;-66
2023/08/05 04:11:51;;;;;;;11.50;5.40;;;;;;;30.66;61.35;100257.61;84328;282;26227;-63
2023/08/05 04:13:58;;;;;;;6.20;5.60;;;;;;;31.02;59.95;100251.00;84174;282;136433;-65
2023/08/05 04:16:03;;;;;;;4.80;4.40;;;;;;;31.29;57.59;100246.70;84193;278;22763;-62
2023/08/05 04:18:06;;;;;;;4.60;4.30;;;;;;;31.49;57.05;100246.73;84095;284;22625;-64
2023/08/05 04:20:09;;;;;;;5.00;4.50;;;;;;;31.65;56.58;100250.25;84142;283;136482;-62
2023/08/05 04:22:12;;;;;;;4.70;4.30;;;;;;;31.80;56.33;100248.13;84060;284;22543;-65
2023/08/05 04:24:18;;;;;;;4.50;4.00;;;;;;;32.06;55.08;100247.19;84076;283;136602;-63
2023/08/05 04:26:20;;;;;;;6.00;5.50;;;;;;;32.29;54.19;100251.77;84242;283;22571;-71
2023/08/05 04:28:22;;;;;;;4.70;4.30;;;;;;;32.49;53.02;100252.79;84083;282;138319;-63
2023/08/05 04:30:24;;;;;;;9.40;4.10;;;;;;;32.49;52.16;100255.50;84218;283;22560;-61
2023/08/05 04:32:25;;;;;;;5.40;3.30;;;;;;;32.44;52.52;100250.10;84007;282;136321;-63
2023/08/05 04:34:31;;;;;;;3.90;3.60;;;;;;;32.55;52.56;100249.17;84087;283;22547;-64
2023/08/05 04:36:34;;;;;;;4.90;3.80;;;;;;;32.53;52.12;100245.21;85430;282;136325;-65
2023/08/05 04:38:36;;;;;;;5.10;4.60;;;;;;;32.48;52.32;100250.77;84248;282;23294;-64
2023/08/05 04:40:40;;;;;;;;;;;;;;;32.44;52.17;100251.48;84206;283;137597;-66
2023/08/05 04:42:42;;;;;;;5.10;4.60;;;;;;;32.37;51.64;100251.05;84136;282;24132;-63
2023/08/05 04:44:45;;;;;;;5.30;4.80;;;;;;;32.27;51.50;100257.73;84233;282;137882;-66
2023/08/05 04:46:47;;;;;;;4.10;3.80;;;;;;;32.15;51.73;100258.88;84337;283;22549;-64
2023/08/05 04:48:50;;;;;;;6.90;3.60;;;;;;;32.03;51.96;100256.13;84223;282;136839;-63
2023/08/05 04:50:52;;;;;;;4.00;3.70;;;;;;;31.88;52.10;100265.61;84396;282;23707;-64
2023/08/05 04:52:54;;;;;;;5.10;4.70;;;;;;;31.79;52.69;100261.42;84105;282;137717;-69
2023/08/05 04:54:55;;;;;;;4.40;4.10;;;;;;;31.92;52.22;100261.45;84201;283;22671;-64
2023/08/05 04:56:57;;;;;;;4.90;4.50;;;;;;;32.13;51.61;100257.73;84178;283;137877;-63
2023/08/05 04:58:59;;;;;;;4.30;3.60;;;;;;;32.26;51.33;100256.55;84209;283;24996;-67
2023/08/05 05:01:01;;;;;;;10.40;4.40;;;;;;;32.41;50.42;100256.77;84043;284;136822;-68
2023/08/05 05:03:05;;;;;;;5.70;4.30;;;;;;;32.55;50.62;100256.02;84103;283;25196;-76
2023/08/05 05:05:08;;;;;;;4.30;4.00;;;;;;;32.80;50.16;100255.70;84052;282;136415;-63
2023/08/05 05:07:10;;;;;;;4.40;4.00;;;;;;;33.08;49.57;100256.19;84228;282;24113;-66
2023/08/05 05:09:12;;;;;;;4.30;3.90;;;;;;;33.44;49.33;100256.42;84186;282;137003;-71
2023/08/05 05:11:14;;;;;;;4.40;4.10;;;;;;;33.68;47.71;100255.95;84195;282;23586;-63
2023/08/05 05:13:16;;;;;;;4.90;4.40;;;;;;;33.75;46.43;100252.77;84219;282;137165;-66
2023/08/05 05:15:21;;;;;;;5.90;5.20;;;;;;;33.64;45.63;100255.34;84391;282;22637;-63
2023/08/05 05:17:23;;;;;;;6.50;5.00;;;;;;;33.27;45.94;100248.36;84218;283;136156;-70
2023/08/05 05:19:25;;;;;;;4.80;4.40;;;;;;;33.07;47.46;100258.59;84185;283;26131;-65
2023/08/05 05:21:27;;;;;;;5.40;4.90;;;;;;;33.08;47.19;100261.77;83956;283;138677;-64
2023/08/05 05:23:29;;;;;;;3.60;3.40;;;;;;;33.08;46.93;100268.80;84217;282;25298;-65
2023/08/05 05:25:31;;;;;;;5.30;4.80;;;;;;;32.98;46.69;100270.57;84130;283;136439;-67
2023/08/05 05:27:34;;;;;;;5.70;4.60;;;;;;;32.89;47.58;100266.08;84249;282;25160;-63
2023/08/05 05:29:36;;;;;;;6.90;4.00;;;;;;;32.95;46.95;100270.55;84020;283;136244;-64
2023/08/05 05:31:38;;;;;;;5.10;4.30;;;;;;;33.02;46.80;100270.70;84077;284;23031;-66
2023/08/05 05:33:40;;;;;;;4.10;3.90;;;;;;;33.03;46.58;100266.65;83873;283;176242;-67
2023/08/05 05:35:41;;;;;;;4.20;3.90;;;;;;;33.05;47.10;100267.73;84071;283;24034;-69
2023/08/05 05:37:43;;;;;;;4.90;3.90;;;;;;;33.18;47.56;100262.42;84133;283;137776;-72
2023/08/05 05:39:45;;;;;;;6.50;4.30;;;;;;;33.41;47.22;100261.77;84202;283;22558;-64
2023/08/05 05:41:47;;;;;;;4.50;4.10;;;;;;;33.65;45.95;100257.81;84157;283;137792;-70
2023/08/05 05:43:49;;;;;;;6.00;4.00;;;;;;;33.89;45.60;100255.36;84171;283;23588;-66
2023/08/05 05:45:53;;;;;;;4.20;4.00;;;;;;;33.98;44.97;100247.86;84204;283;137551;-65
2023/08/05 05:47:54;;;;;;;3.80;3.60;;;;;;;33.92;44.45;100249.10;84421;283;22561;-65
2023/08/05 05:49:56;;;;;;;4.30;4.00;;;;;;;33.65;44.77;100245.67;83975;282;137813;-70
2023/08/05 05:52:00;;;;;;;6.30;4.00;;;;;;;33.18;45.15;100237.56;84129;282;24096;-66
2023/08/05 05:54:02;;;;;;;5.50;4.70;;;;;;;32.89;46.52;100247.88;83944;282;137125;-68
2023/08/05 05:56:05;;;;;;;6.10;4.80;;;;;;;32.80;47.38;100250.15;84088;283;136713;-68
2023/08/05 05:58:07;;;;;;;6.60;4.90;;;;;;;32.77;47.42;100251.24;84200;283;25371;-67
2023/08/05 06:00:09;;;;;;;4.60;4.20;;;;;;;32.82;47.09;100248.63;83942;282;136533;-64
2023/08/05 06:02:14;;;;;;;5.10;4.70;;;;;;;33.06;46.72;100248.84;84109;282;22544;-65
2023/08/05 06:04:16;;;;;;;5.50;3.70;;;;;;;33.34;46.31;100241.43;84048;281;136598;-64
2023/08/05 06:06:22;;;;;;;4.80;4.50;;;;;;;33.60;45.65;100243.69;84094;283;22554;-64
2023/08/05 06:08:24;;;;;;;5.90;4.40;;;;;;;33.69;45.28;100242.00;84034;283;137712;-71
2023/08/05 06:10:26;;;;;;;6.40;4.10;;;;;;;33.63;45.44;100228.47;84229;282;25270;-68
2023/08/05 06:12:32;;;;;;;7.50;5.10;;;;;;;33.60;46.30;100233.64;84087;282;136722;-68
2023/08/05 06:14:36;;;;;;;5.20;4.50;;;;;;;33.68;46.55;100235.73;84149;283;22652;-69
2023/08/05 06:16:38;;;;;;;4.50;3.80;;;;;;;33.72;46.30;100222.37;84039;282;135516;-72
2023/08/05 06:18:40;;;;;;;4.10;3.80;;;;;;;33.82;45.88;100235.39;84121;282;22562;-65
2023/08/05 06:20:42;;;;;;;4.60;4.30;;;;;;;33.75;45.74;100241.39;84002;282;137747;-67
2023/08/05 06:22:44;;;;;;;5.00;3.80;;;;;;;33.60;46.11;100242.26;84156;282;22543;-65
2023/08/05 06:24:46;;;;;;;3.30;3.00;;;;;;;33.46;46.16;100244.56;84098;282;136421;-65
2023/08/05 06:26:49;;;;;;;4.00;3.70;;;;;;;33.28;46.28;100249.30;84244;283;22846;-69
2023/08/05 06:28:52;;;;;;;3.90;3.60;;;;;;;33.03;47.12;100244.38;84046;282;136427;-66
2023/08/05 06:30:56;;;;;;;6.50;4.00;;;;;;;32.87;47.91;100243.84;84155;282;22568;-65
2023/08/05 06:32:58;;;;;;;4.30;4.00;;;;;;;32.75;48.20;100240.20;84056;282;136332;-65
2023/08/05 06:35:00;;;;;;;4.30;3.90;;;;;;;32.64;48.09;100242.73;84135;283;24042;-71
2023/08/05 06:37:01;;;;;;;3.80;3.50;;;;;;;32.61;48.62;100235.84;84090;283;136568;-66
2023/08/05 06:39:03;;;;;;;4.80;4.30;;;;;;;32.77;48.40;100238.21;84151;283;22552;-64
2023/08/05 06:41:05;;;;;;;4.30;3.90;;;;;;;33.04;48.23;100239.23;84061;283;136385;-63
2023/08/05 06:43:08;;;;;;;4.10;3.90;;;;;;;33.29;47.06;100237.55;84176;283;25126;-67
2023/08/05 06:45:10;;;;;;;4.20;3.90;;;;;;;33.35;46.88;100238.77;84235;283;136442;-64
2023/08/05 06:47:12;;;;;;;5.00;4.30;;;;;;;33.33;46.65;100238.25;84151;282;25373;-63
2023/08/05 06:49:13;;;;;;;4.50;3.90;;;;;;;33.26;46.79;100246.14;84150;282;137296;-64
2023/08/05 06:51:15;;;;;;;10.30;4.50;;;;;;;33.22;47.15;100242.06;84121;283;25340;-66
2023/08/05 06:53:17;;;;;;;4.60;4.10;;;;;;;33.20;46.59;100242.79;84138;282;136801;-77
2023/08/05 06:55:19;;;;;;;5.20;4.10;;;;;;;32.91;47.39;100240.52;84127;270;24315;-71
2023/08/05 06:57:21;;;;;;;6.00;4.40;;;;;;;32.73;47.77;100240.22;84147;282;137405;-70
2023/08/05 06:59:27;;;;;;;6.80;3.60;;;;;;;32.66;48.17;100235.21;84153;283;25318;-67
2023/08/05 07:01:28;;;;;;;4.30;3.80;;;;;;;32.66;48.97;100229.54;83952;283;137471;-67
2023/08/05 07:03:30;;;;;;;4.10;3.80;;;;;;;32.73;48.36;100233.45;84050;283;23350;-77
2023/08/05 07:05:32;;;;;;;7.20;4.10;;;;;;;32.81;48.56;100234.33;84065;282;137087;-65
2023/08/05 07:07:34;;;;;;;5.50;3.20;;;;;;;32.85;47.93;100239.34;84172;282;23871;-75
2023/08/05 07:09:36;;;;;;;4.40;3.10;;;;;;;32.83;46.56;100237.72;84123;282;136746;-68
2023/08/05 07:11:38;;;;;;;3.20;2.90;;;;;;;32.85;46.38;100233.67;84157;283;26957;-66
2023/08/05 07:13:40;;;;;;;5.90;3.40;;;;;;;32.88;46.91;100231.27;84101;283;136522;-65
2023/08/05 07:15:41;;;;;;;4.40;3.10;;;;;;;32.83;46.93;100234.65;84122;283;22567;-65
2023/08/05 07:17:43;;;;;;;5.50;3.40;;;;;;;32.71;46.99;100236.60;83972;282;137064;-65
2023/08/05 07:19:45;;;;;;;3.50;2.80;;;;;;;32.58;47.44;100236.29;84091;282;22688;-70
2023/08/05 07:21:47;;;;;;;3.50;3.30;;;;;;;32.44;47.68;100238.84;84033;279;136935;-68
2023/08/05 07:23:50;;;;;;;3.50;3.20;;;;;;;32.33;48.45;100241.36;84221;282;25173;-71
2023/08/05 07:25:52;;;;;;;9.60;3.50;;;;;;;32.30;48.14;100235.81;84304;283;136405;-66
2023/08/05 07:27:54;;;;;;;6.70;3.10;;;;;;;32.27;48.47;100245.38;84091;283;22561;-68
2023/08/05 07:29:56;;;;;;;3.30;3.10;;;;;;;32.14;48.56;100242.30;84084;280;136088;-70
2023/08/05 07:31:58;;;;;;;3.10;2.70;;;;;;;32.05;49.17;100238.80;83912;285;24257;-71
2023/08/05 07:34:00;;;;;;;3.60;3.40;;;;;;;31.99;48.86;100239.11;84058;282;136243;-70
2023/08/05 07:36:10;;;;;;;3.20;3.10;;;;;;;31.95;49.30;100230.84;84117;282;22547;-66
2023/08/05 07:38:11;;;;;;;5.70;3.50;;;;;;;31.89;49.20;100237.07;84172;282;22576;-63
2023/08/05 07:40:13;;;;;;;3.10;2.90;;;;;;;31.84;48.92;100234.84;84062;283;136284;-66
2023/08/05 07:42:20;;;;;;;6.10;3.00;;;;;;;31.64;49.77;100222.31;84182;283;22551;-76
2023/08/05 07:44:23;;;;;;;5.10;3.40;;;;;;;31.49;50.25;100236.07;84087;283;137928;-63
2023/08/05 07:46:25;;;;;;;4.40;3.40;;;;;;;31.35;50.60;100235.21;84225;282;25149;-67
2023/08/05 07:48:34;;;;;;;5.10;4.10;;;;;;;31.24;51.32;100236.81;83999;283;136401;-77
2023/08/05 07:50:36;;;;;;;3.50;3.00;;;;;;;31.21;51.81;100227.66;84133;283;22546;-65
2023/08/05 07:52:40;;;;;;;;;;;;;;;31.24;51.56;100228.81;84151;282;136631;-74
2023/08/05 07:54:42;;;;;;;4.10;3.50;;;;;;;31.25;51.03;100230.42;84243;283;25222;-70
2023/08/05 07:56:48;;;;;;;3.40;3.10;;;;;;;31.26;50.66;100231.33;84136;282;136587;-62
2023/08/05 07:58:50;;;;;;;7.20;3.80;;;;;;;31.28;50.33;100234.39;84168;281;22545;-74
2023/08/05 08:00:56;;;;;;;4.20;2.60;;;;;;;31.24;50.00;100234.10;84189;274;137831;-69
2023/08/05 08:02:58;;;;;;;4.60;3.70;;;;;;;31.24;50.28;100234.38;84095;283;22567;-68
2023/08/05 08:05:04;;;;;;;6.40;2.80;;;;;;;31.22;49.88;100238.48;84117;282;137656;-66
2023/08/05 08:07:08;;;;;;;2.70;2.50;;;;;;;31.20;49.47;100237.93;84219;282;22545;-66
2023/08/05 08:09:13;;;;;;;3.30;2.90;;;;;;;31.14;49.90;100240.50;84019;283;138319;-65
2023/08/05 08:11:15;;;;;;;2.90;2.50;;;;;;;31.07;49.58;100229.65;84233;283;22556;-67
2023/08/05 08:13:17;;;;;;;3.50;2.20;;;;;;;31.10;49.66;100246.08;84080;283;136375;-66
2023/08/05 08:15:19;;;;;;;3.30;2.80;;;;;;;31.04;49.74;100235.92;84130;272;22545;-64
2023/08/05 08:17:20;;;;;;;2.40;2.30;;;;;;;31.08;49.27;100238.98;84025;283;136184;-68
2023/08/05 08:19:23;;;;;;;2.90;2.70;;;;;;;31.07;49.24;100238.23;84043;284;22574;-63
2023/08/05 08:21:24;;;;;;;11.90;3.00;;;;;;;30.99;48.83;100245.84;84032;282;136477;-62
2023/08/05 08:23:26;;;;;;;2.80;2.60;;;;;;;30.96;48.65;100254.69;84205;282;22603;-66
2023/08/05 08:25:28;;;;;;;4.00;2.60;;;;;;;30.94;48.45;100253.91;84080;284;137400;-65
2023/08/05 08:27:30;;;;;;;3.10;2.00;;;;;;;30.98;48.21;100242.58;84233;283;22586;-62
2023/08/05 08:29:31;;;;;;;2.00;1.90;;;;;;;31.04;47.90;100245.81;84142;283;136172;-65
2023/08/05 08:31:33;;;;;;;2.40;2.30;;;;;;;31.14;47.87;100239.15;84212;272;22659;-65
2023/08/05 08:33:36;;;;;;;3.10;1.60;;;;;;;31.21;47.10;100229.38;84227;282;137811;-61
2023/08/05 08:35:37;;;;;;;2.40;1.80;;;;;;;31.20;47.02;100235.23;84203;282;23885;-60
2023/08/05 08:37:39;;;;;;;2.40;2.20;;;;;;;31.20;47.22;100232.20;84141;283;137475;-65
2023/08/05 08:39:41;;;;;;;2.80;2.30;;;;;;;31.22;47.67;100233.67;84197;283;22561;-76
2023/08/05 08:41:48;;;;;;;1.70;1.60;;;;;;;31.25;47.37;100224.98;84072;283;136120;-72
2023/08/05 08:43:51;;;;;;;1.40;1.40;;;;;;;31.32;47.10;100222.66;84189;282;25286;-66
2023/08/05 08:45:53;;;;;;;4.10;1.70;;;;;;;31.34;46.55;100220.77;84105;283;137149;-65
2023/08/05 08:47:55;;;;;;;2.60;1.70;;;;;;;31.35;46.84;100226.83;84366;283;26346;-68
2023/08/05 08:49:58;;;;;;;1.60;1.50;;;;;;;31.36;46.48;100223.09;84349;282;136283;-66
2023/08/05 08:52:00;;;;;;;3.80;1.50;;;;;;;31.37;46.80;100214.70;84297;282;22517;-68
2023/08/05 08:54:03;;;;;;;3.10;2.30;;;;;;;31.43;46.75;100216.17;84201;283;136215;-70
2023/08/05 08:56:08;;;;;;;2.10;2.00;;;;;;;31.54;46.19;100221.30;84263;282;136640;-74
2023/08/05 08:58:11;;;;;;;2.00;1.90;;;;;;;31.56;46.14;100224.05;84611;279;24098;-61
2023/08/05 09:00:13;;;;;;;1.60;1.30;;;;;;;31.53;45.88;100240.23;84390;282;136425;-72
2023/08/05 09:02:24;;;;;;;1.90;1.80;;;;;;;31.46;45.52;100229.63;84079;284;25137;-77
2023/08/05 09:04:30;;;;;;;3.20;1.60;;;;;;;31.42;45.68;100237.16;84398;283;136278;-65
2023/08/05 09:06:33;;;;;;;1.70;1.50;;;;;;;31.39;45.61;100228.31;84267;283;24259;-65
2023/08/05 09:08:37;;;;;;;2.20;2.10;;;;;;;31.39;46.20;100235.33;84101;282;136260;-65
2023/08/05 09:10:39;;;;;;;2.10;1.90;;;;;;;31.40;46.17;100232.66;84227;282;22584;-69
2023/08/05 09:12:42;;;;;;;2.00;1.90;;;;;;;31.37;46.46;100229.40;84095;282;136407;-80
2023/08/05 09:14:43;;;;;;;1.90;1.80;;;;;;;31.39;45.85;100227.35;84269;282;22551;-68
2023/08/05 09:16:58;;;;;;;1.80;1.70;;;;;;;31.38;45.96;100233.93;84172;282;136529;-61
2023/08/05 09:19:02;;;;;;;1.50;1.40;;;;;;;31.43;45.76;100239.16;84202;283;22659;-65
2023/08/05 09:21:05;;;;;;;2.80;1.40;;;;;;;31.49;45.21;100244.75;84035;283;136347;-67
2023/08/05 09:23:10;;;;;;;7.10;2.00;;;;;;;31.53;44.69;100253.05;84188;283;25134;-69
2023/08/05 09:25:12;;;;;;;3.40;2.10;;;;;;;31.53;44.74;100250.07;84018;283;136605;-67
2023/08/05 09:27:14;;;;;;;1.40;1.30;;;;;;;31.50;44.09;100255.14;84141;283;25141;-68
2023/08/05 09:29:21;;;;;;;2.10;1.90;;;;;;;31.47;44.85;100250.80;84101;283;136214;-66
2023/08/05 09:31:23;;;;;;;2.00;1.90;;;;;;;31.40;45.24;100253.91;84089;284;22728;-67
2023/08/05 09:33:28;;;;;;;2.90;2.00;;;;;;;31.34;45.30;100258.02;84073;282;136503;-72
2023/08/05 09:38:10;;;;;;;2.60;2.50;;;;;;;31.20;46.08;100243.83;82504;309;564529;-64